sensor_id;sensor_type;location;lat;lon;timestamp;temperature;humidity
11246;DHT22;59870;50.106;8.580;2023-04-25T00:01:17;13.90;88.50
11246;DHT22;59870;50.106;8.580;2023-04-25T00:03:45;13.90;88.70
11246;DHT22;59870;50.106;8.580;2023-04-25T00:06:13;13.90;88.80
11246;DHT22;59870;50.106;8.580;2023-04-25T00:08:46;13.80;88.70
11246;DHT22;59870;50.106;8.580;2023-04-25T00:11:13;13.80;89.00
11246;DHT22;59870;50.106;8.580;2023-04-25T00:13:40;13.80;89.40
11246;DHT22;59870;50.106;8.580;2023-04-25T00:16:09;13.80;89.60
11246;DHT22;59870;50.106;8.580;2023-04-25T00:18:43;13.80;89.70
11246;DHT22;59870;50.106;8.580;2023-04-25T00:21:13;13.80;89.60
11246;DHT22;59870;50.106;8.580;2023-04-25T00:23:41;13.80;89.80
11246;DHT22;59870;50.106;8.580;2023-04-25T00:26:08;13.80;89.80
11246;DHT22;59870;50.106;8.580;2023-04-25T00:28:35;13.80;90.00
11246;DHT22;59870;50.106;8.580;2023-04-25T00:31:03;13.80;90.00
11246;DHT22;59870;50.106;8.580;2023-04-25T00:33:30;13.70;90.10
11246;DHT22;59870;50.106;8.580;2023-04-25T00:35:58;13.70;90.20
11246;DHT22;59870;50.106;8.580;2023-04-25T00:38:25;13.70;90.20
11246;DHT22;59870;50.106;8.580;2023-04-25T00:40:52;13.70;90.30
11246;DHT22;59870;50.106;8.580;2023-04-25T00:43:21;13.70;90.40
11246;DHT22;59870;50.106;8.580;2023-04-25T00:45:48;13.70;90.50
11246;DHT22;59870;50.106;8.580;2023-04-25T00:52:00;13.60;90.30
11246;DHT22;59870;50.106;8.580;2023-04-25T00:54:28;13.70;90.40
11246;DHT22;59870;50.106;8.580;2023-04-25T01:01:45;13.60;90.30
11246;DHT22;59870;50.106;8.580;2023-04-25T01:04:13;13.60;89.40
11246;DHT22;59870;50.106;8.580;2023-04-25T01:06:42;13.60;89.30
11246;DHT22;59870;50.106;8.580;2023-04-25T01:09:10;13.60;89.10
11246;DHT22;59870;50.106;8.580;2023-04-25T01:11:38;13.60;88.70
11246;DHT22;59870;50.106;8.580;2023-04-25T01:14:07;13.60;88.80
11246;DHT22;59870;50.106;8.580;2023-04-25T01:16:34;13.60;88.80
11246;DHT22;59870;50.106;8.580;2023-04-25T01:19:09;13.60;88.50
11246;DHT22;59870;50.106;8.580;2023-04-25T01:21:38;13.50;88.30
11246;DHT22;59870;50.106;8.580;2023-04-25T01:24:06;13.60;88.80
11246;DHT22;59870;50.106;8.580;2023-04-25T01:26:35;14.20;89.30
11246;DHT22;59870;50.106;8.580;2023-04-25T01:29:05;13.50;88.90
11246;DHT22;59870;50.106;8.580;2023-04-25T01:31:59;13.50;88.90
11246;DHT22;59870;50.106;8.580;2023-04-25T01:34:27;13.50;88.70
11246;DHT22;59870;50.106;8.580;2023-04-25T01:36:59;13.50;88.60
11246;DHT22;59870;50.106;8.580;2023-04-25T01:39:28;13.50;88.80
11246;DHT22;59870;50.106;8.580;2023-04-25T01:41:57;13.50;88.60
11246;DHT22;59870;50.106;8.580;2023-04-25T01:44:40;13.50;88.40
11246;DHT22;59870;50.106;8.580;2023-04-25T01:47:07;13.40;88.30
11246;DHT22;59870;50.106;8.580;2023-04-25T01:49:34;13.50;89.00
11246;DHT22;59870;50.106;8.580;2023-04-25T01:52:06;13.40;88.50
11246;DHT22;59870;50.106;8.580;2023-04-25T01:57:22;13.50;88.50
11246;DHT22;59870;50.106;8.580;2023-04-25T01:59:50;13.70;88.90
11246;DHT22;59870;50.106;8.580;2023-04-25T02:02:36;13.40;88.50
11246;DHT22;59870;50.106;8.580;2023-04-25T02:05:06;13.40;88.40
11246;DHT22;59870;50.106;8.580;2023-04-25T02:07:37;13.40;88.30
11246;DHT22;59870;50.106;8.580;2023-04-25T02:11:09;13.40;88.30
11246;DHT22;59870;50.106;8.580;2023-04-25T02:13:42;13.40;88.40
11246;DHT22;59870;50.106;8.580;2023-04-25T02:16:30;13.40;88.40
11246;DHT22;59870;50.106;8.580;2023-04-25T02:18:59;13.40;88.50
11246;DHT22;59870;50.106;8.580;2023-04-25T02:21:27;13.30;88.20
11246;DHT22;59870;50.106;8.580;2023-04-25T02:23:55;13.40;88.60
11246;DHT22;59870;50.106;8.580;2023-04-25T02:26:22;13.40;88.90
11246;DHT22;59870;50.106;8.580;2023-04-25T02:28:51;13.30;88.70
11246;DHT22;59870;50.106;8.580;2023-04-25T02:31:19;13.40;88.40
11246;DHT22;59870;50.106;8.580;2023-04-25T02:33:48;13.30;88.10
11246;DHT22;59870;50.106;8.580;2023-04-25T02:36:15;13.30;88.30
11246;DHT22;59870;50.106;8.580;2023-04-25T02:38:45;13.30;88.20
11246;DHT22;59870;50.106;8.580;2023-04-25T02:41:12;13.70;88.70
11246;DHT22;59870;50.106;8.580;2023-04-25T02:43:39;13.30;88.50
11246;DHT22;59870;50.106;8.580;2023-04-25T02:46:07;13.30;88.40
11246;DHT22;59870;50.106;8.580;2023-04-25T02:48:35;13.30;87.90
11246;DHT22;59870;50.106;8.580;2023-04-25T02:51:04;13.30;87.50
11246;DHT22;59870;50.106;8.580;2023-04-25T02:53:32;13.30;87.70
11246;DHT22;59870;50.106;8.580;2023-04-25T02:55:59;13.30;87.40
11246;DHT22;59870;50.106;8.580;2023-04-25T02:58:27;13.30;88.00
11246;DHT22;59870;50.106;8.580;2023-04-25T03:00:55;13.30;88.30
11246;DHT22;59870;50.106;8.580;2023-04-25T03:03:22;13.20;88.20
11246;DHT22;59870;50.106;8.580;2023-04-25T03:06:16;13.20;87.80
11246;DHT22;59870;50.106;8.580;2023-04-25T03:08:44;13.60;87.80
11246;DHT22;59870;50.106;8.580;2023-04-25T03:11:11;13.10;87.30
11246;DHT22;59870;50.106;8.580;2023-04-25T03:13:41;13.10;86.90
11246;DHT22;59870;50.106;8.580;2023-04-25T03:16:10;13.00;87.30
11246;DHT22;59870;50.106;8.580;2023-04-25T03:18:38;13.00;87.40
11246;DHT22;59870;50.106;8.580;2023-04-25T03:21:05;13.00;88.10
11246;DHT22;59870;50.106;8.580;2023-04-25T03:23:34;13.00;87.80
11246;DHT22;59870;50.106;8.580;2023-04-25T03:26:01;13.00;87.80
11246;DHT22;59870;50.106;8.580;2023-04-25T03:28:30;13.30;88.20
11246;DHT22;59870;50.106;8.580;2023-04-25T03:30:58;13.00;87.10
11246;DHT22;59870;50.106;8.580;2023-04-25T03:33:26;13.00;86.90
11246;DHT22;59870;50.106;8.580;2023-04-25T03:35:53;13.00;87.00
11246;DHT22;59870;50.106;8.580;2023-04-25T03:38:21;13.00;87.20
11246;DHT22;59870;50.106;8.580;2023-04-25T03:40:49;13.00;87.20
11246;DHT22;59870;50.106;8.580;2023-04-25T03:43:22;13.00;85.90
11246;DHT22;59870;50.106;8.580;2023-04-25T03:45:55;13.00;86.00
11246;DHT22;59870;50.106;8.580;2023-04-25T03:48:34;13.00;86.10
11246;DHT22;59870;50.106;8.580;2023-04-25T03:51:03;13.00;85.50
11246;DHT22;59870;50.106;8.580;2023-04-25T03:53:32;13.00;86.10
11246;DHT22;59870;50.106;8.580;2023-04-25T03:56:26;12.90;85.20
11246;DHT22;59870;50.106;8.580;2023-04-25T03:59:00;12.90;85.60
11246;DHT22;59870;50.106;8.580;2023-04-25T04:04:48;12.80;85.90
11246;DHT22;59870;50.106;8.580;2023-04-25T04:07:41;12.80;85.10
11246;DHT22;59870;50.106;8.580;2023-04-25T04:10:37;12.80;85.40
11246;DHT22;59870;50.106;8.580;2023-04-25T04:16:23;12.70;85.20
11246;DHT22;59870;50.106;8.580;2023-04-25T04:18:54;12.70;85.00
11246;DHT22;59870;50.106;8.580;2023-04-25T04:21:21;12.60;85.10
11246;DHT22;59870;50.106;8.580;2023-04-25T04:28:32;12.60;85.30
11246;DHT22;59870;50.106;8.580;2023-04-25T04:31:05;12.50;84.50
11246;DHT22;59870;50.106;8.580;2023-04-25T04:33:33;12.50;84.60
11246;DHT22;59870;50.106;8.580;2023-04-25T04:36:03;12.50;84.90
11246;DHT22;59870;50.106;8.580;2023-04-25T04:38:31;12.50;84.00
11246;DHT22;59870;50.106;8.580;2023-04-25T04:53:41;12.50;83.00
11246;DHT22;59870;50.106;8.580;2023-04-25T04:56:17;12.40;82.70
11246;DHT22;59870;50.106;8.580;2023-04-25T04:59:33;12.40;82.10
11246;DHT22;59870;50.106;8.580;2023-04-25T05:02:51;12.40;82.00
11246;DHT22;59870;50.106;8.580;2023-04-25T05:15:18;12.40;82.10
11246;DHT22;59870;50.106;8.580;2023-04-25T05:18:04;12.40;80.40
11246;DHT22;59870;50.106;8.580;2023-04-25T05:20:46;12.40;82.30
11246;DHT22;59870;50.106;8.580;2023-04-25T05:23:34;12.50;82.40
11246;DHT22;59870;50.106;8.580;2023-04-25T05:30:06;12.50;82.40
11246;DHT22;59870;50.106;8.580;2023-04-25T05:36:03;12.60;82.50
11246;DHT22;59870;50.106;8.580;2023-04-25T05:38:32;12.10;80.70
11246;DHT22;59870;50.106;8.580;2023-04-25T05:54:15;13.20;81.30
11246;DHT22;59870;50.106;8.580;2023-04-25T05:58:35;13.60;80.40
11246;DHT22;59870;50.106;8.580;2023-04-25T06:01:03;13.40;80.00
11246;DHT22;59870;50.106;8.580;2023-04-25T06:03:31;13.40;79.00
11246;DHT22;59870;50.106;8.580;2023-04-25T06:05:59;13.50;76.90
11246;DHT22;59870;50.106;8.580;2023-04-25T06:08:26;13.60;77.30
11246;DHT22;59870;50.106;8.580;2023-04-25T06:10:53;13.70;77.20
11246;DHT22;59870;50.106;8.580;2023-04-25T06:13:22;13.70;76.10
11246;DHT22;59870;50.106;8.580;2023-04-25T06:15:50;13.80;75.60
11246;DHT22;59870;50.106;8.580;2023-04-25T06:18:19;13.90;76.40
11246;DHT22;59870;50.106;8.580;2023-04-25T06:20:47;14.00;76.70
11246;DHT22;59870;50.106;8.580;2023-04-25T06:23:16;14.60;78.50
11246;DHT22;59870;50.106;8.580;2023-04-25T06:25:53;14.30;76.20
11246;DHT22;59870;50.106;8.580;2023-04-25T06:28:21;14.40;74.90
11246;DHT22;59870;50.106;8.580;2023-04-25T06:30:49;14.60;75.50
11246;DHT22;59870;50.106;8.580;2023-04-25T06:33:19;14.70;74.60
11246;DHT22;59870;50.106;8.580;2023-04-25T06:35:49;14.80;71.30
11246;DHT22;59870;50.106;8.580;2023-04-25T06:38:32;15.00;71.90
11246;DHT22;59870;50.106;8.580;2023-04-25T06:49:50;15.80;73.90
11246;DHT22;59870;50.106;8.580;2023-04-25T06:52:19;16.00;69.90
11246;DHT22;59870;50.106;8.580;2023-04-25T06:54:48;16.50;70.40
11246;DHT22;59870;50.106;8.580;2023-04-25T07:07:35;16.50;69.50
11246;DHT22;59870;50.106;8.580;2023-04-25T07:19:44;16.90;67.90
11246;DHT22;59870;50.106;8.580;2023-04-25T07:22:13;17.40;66.50
11246;DHT22;59870;50.106;8.580;2023-04-25T07:31:31;17.30;68.50
11246;DHT22;59870;50.106;8.580;2023-04-25T07:33:59;17.70;66.00
11246;DHT22;59870;50.106;8.580;2023-04-25T07:36:28;17.80;64.10
11246;DHT22;59870;50.106;8.580;2023-04-25T07:54:17;20.00;59.60
11246;DHT22;59870;50.106;8.580;2023-04-25T07:56:52;20.40;58.10
11246;DHT22;59870;50.106;8.580;2023-04-25T07:59:25;21.20;58.70
11246;DHT22;59870;50.106;8.580;2023-04-25T08:01:55;21.50;57.70
11246;DHT22;59870;50.106;8.580;2023-04-25T08:04:25;21.80;57.40
11246;DHT22;59870;50.106;8.580;2023-04-25T08:06:58;21.90;56.40
11246;DHT22;59870;50.106;8.580;2023-04-25T08:09:29;22.80;55.40
11246;DHT22;59870;50.106;8.580;2023-04-25T08:12:03;23.10;53.00
11246;DHT22;59870;50.106;8.580;2023-04-25T08:14:32;22.70;51.80
11246;DHT22;59870;50.106;8.580;2023-04-25T08:17:04;22.70;50.60
11246;DHT22;59870;50.106;8.580;2023-04-25T08:19:34;22.80;51.00
11246;DHT22;59870;50.106;8.580;2023-04-25T08:22:02;23.60;51.30
11246;DHT22;59870;50.106;8.580;2023-04-25T08:24:41;23.40;50.50
11246;DHT22;59870;50.106;8.580;2023-04-25T08:27:11;23.20;49.70
11246;DHT22;59870;50.106;8.580;2023-04-25T08:29:41;23.20;47.60
11246;DHT22;59870;50.106;8.580;2023-04-25T08:32:09;23.10;49.10
11246;DHT22;59870;50.106;8.580;2023-04-25T08:34:42;23.10;49.10
11246;DHT22;59870;50.106;8.580;2023-04-25T08:37:10;23.20;48.40
11246;DHT22;59870;50.106;8.580;2023-04-25T08:39:50;23.70;46.70
11246;DHT22;59870;50.106;8.580;2023-04-25T08:42:20;23.00;47.80
11246;DHT22;59870;50.106;8.580;2023-04-25T08:44:49;22.90;47.70
11246;DHT22;59870;50.106;8.580;2023-04-25T08:47:21;22.90;48.30
11246;DHT22;59870;50.106;8.580;2023-04-25T08:49:54;23.00;47.60
11246;DHT22;59870;50.106;8.580;2023-04-25T08:52:23;23.00;46.40
11246;DHT22;59870;50.106;8.580;2023-04-25T08:54:52;23.00;47.80
11246;DHT22;59870;50.106;8.580;2023-04-25T08:57:21;22.90;47.20
11246;DHT22;59870;50.106;8.580;2023-04-25T08:59:52;22.80;47.50
11246;DHT22;59870;50.106;8.580;2023-04-25T09:02:21;22.70;48.10
11246;DHT22;59870;50.106;8.580;2023-04-25T09:04:51;23.30;47.90
11246;DHT22;59870;50.106;8.580;2023-04-25T09:07:21;22.70;47.90
11246;DHT22;59870;50.106;8.580;2023-04-25T09:09:50;22.70;48.00
11246;DHT22;59870;50.106;8.580;2023-04-25T09:12:20;22.80;47.90
11246;DHT22;59870;50.106;8.580;2023-04-25T09:17:59;22.90;48.70
11246;DHT22;59870;50.106;8.580;2023-04-25T09:20:41;23.10;49.20
11246;DHT22;59870;50.106;8.580;2023-04-25T09:23:27;23.50;48.60
11246;DHT22;59870;50.106;8.580;2023-04-25T09:25:55;23.80;47.60
11246;DHT22;59870;50.106;8.580;2023-04-25T09:28:24;23.60;44.90
11246;DHT22;59870;50.106;8.580;2023-04-25T09:30:57;23.70;45.40
11246;DHT22;59870;50.106;8.580;2023-04-25T09:33:34;23.80;45.40
11246;DHT22;59870;50.106;8.580;2023-04-25T09:36:08;24.50;46.00
11246;DHT22;59870;50.106;8.580;2023-04-25T09:39:12;23.80;45.10
11246;DHT22;59870;50.106;8.580;2023-04-25T09:41:53;23.70;43.30
11246;DHT22;59870;50.106;8.580;2023-04-25T09:44:24;23.60;44.50
11246;DHT22;59870;50.106;8.580;2023-04-25T09:46:53;23.70;45.20
11246;DHT22;59870;50.106;8.580;2023-04-25T09:49:25;23.40;44.10
11246;DHT22;59870;50.106;8.580;2023-04-25T09:52:01;23.30;44.10
11246;DHT22;59870;50.106;8.580;2023-04-25T09:54:47;23.20;44.00
11246;DHT22;59870;50.106;8.580;2023-04-25T09:57:23;23.60;46.00
11246;DHT22;59870;50.106;8.580;2023-04-25T09:59:54;23.00;44.50
11246;DHT22;59870;50.106;8.580;2023-04-25T10:02:25;22.90;44.70
11246;DHT22;59870;50.106;8.580;2023-04-25T10:05:00;22.80;44.40
11246;DHT22;59870;50.106;8.580;2023-04-25T10:07:38;22.60;45.00
11246;DHT22;59870;50.106;8.580;2023-04-25T10:10:12;22.60;44.70
11246;DHT22;59870;50.106;8.580;2023-04-25T10:12:42;22.40;44.70
11246;DHT22;59870;50.106;8.580;2023-04-25T10:15:11;22.20;45.40
11246;DHT22;59870;50.106;8.580;2023-04-25T10:17:41;22.10;43.60
11246;DHT22;59870;50.106;8.580;2023-04-25T10:20:10;22.00;44.00
11246;DHT22;59870;50.106;8.580;2023-04-25T10:22:42;21.80;44.10
11246;DHT22;59870;50.106;8.580;2023-04-25T10:25:11;22.20;45.20
11246;DHT22;59870;50.106;8.580;2023-04-25T10:27:40;22.00;45.70
11246;DHT22;59870;50.106;8.580;2023-04-25T10:30:09;21.50;45.10
11246;DHT22;59870;50.106;8.580;2023-04-25T10:32:45;21.40;45.10
11246;DHT22;59870;50.106;8.580;2023-04-25T10:35:18;21.20;44.50
11246;DHT22;59870;50.106;8.580;2023-04-25T10:38:11;21.10;45.50
11246;DHT22;59870;50.106;8.580;2023-04-25T10:40:41;21.00;46.40
11246;DHT22;59870;50.106;8.580;2023-04-25T10:46:02;20.90;45.80
11246;DHT22;59870;50.106;8.580;2023-04-25T10:48:31;20.80;45.60
11246;DHT22;59870;50.106;8.580;2023-04-25T10:51:12;21.20;45.70
11246;DHT22;59870;50.106;8.580;2023-04-25T10:53:47;20.40;45.80
11246;DHT22;59870;50.106;8.580;2023-04-25T10:56:23;20.20;46.80
11246;DHT22;59870;50.106;8.580;2023-04-25T10:58:52;20.30;48.30
11246;DHT22;59870;50.106;8.580;2023-04-25T11:01:37;20.20;48.90
11246;DHT22;59870;50.106;8.580;2023-04-25T11:04:29;19.70;48.20
11246;DHT22;59870;50.106;8.580;2023-04-25T11:10:14;19.30;49.60
11246;DHT22;59870;50.106;8.580;2023-04-25T11:12:45;19.30;49.10
11246;DHT22;59870;50.106;8.580;2023-04-25T11:15:14;19.60;49.60
11246;DHT22;59870;50.106;8.580;2023-04-25T11:17:54;18.70;48.20
11246;DHT22;59870;50.106;8.580;2023-04-25T11:30:16;18.60;49.80
11246;DHT22;59870;50.106;8.580;2023-04-25T11:32:46;18.60;51.00
11246;DHT22;59870;50.106;8.580;2023-04-25T11:35:16;19.00;49.80
11246;DHT22;59870;50.106;8.580;2023-04-25T11:37:44;18.70;49.10
11246;DHT22;59870;50.106;8.580;2023-04-25T11:40:12;18.70;49.80
11246;DHT22;59870;50.106;8.580;2023-04-25T11:42:45;18.70;49.40
11246;DHT22;59870;50.106;8.580;2023-04-25T11:45:14;18.70;49.70
11246;DHT22;59870;50.106;8.580;2023-04-25T11:47:41;19.20;49.80
11246;DHT22;59870;50.106;8.580;2023-04-25T11:50:09;19.20;49.60
11246;DHT22;59870;50.106;8.580;2023-04-25T11:52:39;19.40;49.10
11246;DHT22;59870;50.106;8.580;2023-04-25T11:55:13;19.50;48.50
11246;DHT22;59870;50.106;8.580;2023-04-25T11:57:43;19.70;50.00
11246;DHT22;59870;50.106;8.580;2023-04-25T12:00:13;19.30;49.90
11246;DHT22;59870;50.106;8.580;2023-04-25T12:03:10;19.30;48.90
11246;DHT22;59870;50.106;8.580;2023-04-25T12:05:40;19.40;48.40
11246;DHT22;59870;50.106;8.580;2023-04-25T12:11:31;19.50;47.20
11246;DHT22;59870;50.106;8.580;2023-04-25T12:14:30;19.50;47.10
11246;DHT22;59870;50.106;8.580;2023-04-25T12:17:28;19.60;47.70
11246;DHT22;59870;50.106;8.580;2023-04-25T12:19:57;20.00;48.00
11246;DHT22;59870;50.106;8.580;2023-04-25T12:22:26;20.00;46.40
11246;DHT22;59870;50.106;8.580;2023-04-25T12:24:54;20.00;46.20
11246;DHT22;59870;50.106;8.580;2023-04-25T12:27:25;19.50;47.20
11246;DHT22;59870;50.106;8.580;2023-04-25T12:29:55;19.80;48.30
11246;DHT22;59870;50.106;8.580;2023-04-25T12:32:23;19.40;46.90
11246;DHT22;59870;50.106;8.580;2023-04-25T12:34:52;19.70;47.60
11246;DHT22;59870;50.106;8.580;2023-04-25T12:37:19;19.20;47.10
11246;DHT22;59870;50.106;8.580;2023-04-25T12:39:47;19.70;49.10
11246;DHT22;59870;50.106;8.580;2023-04-25T12:42:15;19.20;47.20
11246;DHT22;59870;50.106;8.580;2023-04-25T12:44:43;19.60;47.90
11246;DHT22;59870;50.106;8.580;2023-04-25T12:47:11;19.70;48.00
11246;DHT22;59870;50.106;8.580;2023-04-25T12:53:08;19.00;47.80
11246;DHT22;59870;50.106;8.580;2023-04-25T12:55:40;19.40;48.00
11246;DHT22;59870;50.106;8.580;2023-04-25T12:58:08;19.30;47.90
11246;DHT22;59870;50.106;8.580;2023-04-25T13:00:38;18.90;47.80
11246;DHT22;59870;50.106;8.580;2023-04-25T13:03:07;18.80;48.20
11246;DHT22;59870;50.106;8.580;2023-04-25T13:05:40;19.20;48.10
11246;DHT22;59870;50.106;8.580;2023-04-25T13:08:10;19.40;47.80
11246;DHT22;59870;50.106;8.580;2023-04-25T13:10:44;19.30;47.70
11246;DHT22;59870;50.106;8.580;2023-04-25T13:13:40;19.00;47.70
11246;DHT22;59870;50.106;8.580;2023-04-25T13:16:08;19.00;47.10
11246;DHT22;59870;50.106;8.580;2023-04-25T13:18:37;19.50;46.70
11246;DHT22;59870;50.106;8.580;2023-04-25T13:21:09;19.00;47.30
11246;DHT22;59870;50.106;8.580;2023-04-25T13:23:43;19.50;48.30
11246;DHT22;59870;50.106;8.580;2023-04-25T13:26:13;19.00;47.60
11246;DHT22;59870;50.106;8.580;2023-04-25T13:28:42;19.10;46.50
11246;DHT22;59870;50.106;8.580;2023-04-25T13:31:22;19.40;48.00
11246;DHT22;59870;50.106;8.580;2023-04-25T13:34:16;19.20;46.10
11246;DHT22;59870;50.106;8.580;2023-04-25T13:36:43;19.20;47.50
11246;DHT22;59870;50.106;8.580;2023-04-25T13:39:12;19.20;47.10
11246;DHT22;59870;50.106;8.580;2023-04-25T13:41:40;19.50;46.00
11246;DHT22;59870;50.106;8.580;2023-04-25T13:44:09;19.30;46.20
11246;DHT22;59870;50.106;8.580;2023-04-25T13:46:37;19.30;47.70
11246;DHT22;59870;50.106;8.580;2023-04-25T13:49:14;19.70;46.80
11246;DHT22;59870;50.106;8.580;2023-04-25T13:51:41;19.30;46.60
11246;DHT22;59870;50.106;8.580;2023-04-25T13:54:09;19.70;48.20
11246;DHT22;59870;50.106;8.580;2023-04-25T13:56:38;19.30;48.00
11246;DHT22;59870;50.106;8.580;2023-04-25T13:59:06;19.30;46.20
11246;DHT22;59870;50.106;8.580;2023-04-25T14:01:33;19.80;46.20
11246;DHT22;59870;50.106;8.580;2023-04-25T14:04:03;19.70;46.60
11246;DHT22;59870;50.106;8.580;2023-04-25T14:06:58;19.90;46.50
11246;DHT22;59870;50.106;8.580;2023-04-25T14:10:11;19.50;45.00
11246;DHT22;59870;50.106;8.580;2023-04-25T14:12:47;20.00;47.00
11246;DHT22;59870;50.106;8.580;2023-04-25T14:15:14;19.60;45.00
11246;DHT22;59870;50.106;8.580;2023-04-25T14:17:42;19.60;45.60
11246;DHT22;59870;50.106;8.580;2023-04-25T14:20:10;19.50;44.30
11246;DHT22;59870;50.106;8.580;2023-04-25T14:22:38;19.60;45.30
11246;DHT22;59870;50.106;8.580;2023-04-25T14:25:09;19.80;44.00
11246;DHT22;59870;50.106;8.580;2023-04-25T14:27:37;19.90;43.60
11246;DHT22;59870;50.106;8.580;2023-04-25T14:30:05;19.80;43.60
11246;DHT22;59870;50.106;8.580;2023-04-25T14:32:33;19.40;44.40
11246;DHT22;59870;50.106;8.580;2023-04-25T14:35:01;19.40;44.00
11246;DHT22;59870;50.106;8.580;2023-04-25T14:37:30;19.70;43.90
11246;DHT22;59870;50.106;8.580;2023-04-25T14:39:57;19.40;43.90
11246;DHT22;59870;50.106;8.580;2023-04-25T14:42:24;19.20;44.30
11246;DHT22;59870;50.106;8.580;2023-04-25T14:44:54;19.10;44.00
11246;DHT22;59870;50.106;8.580;2023-04-25T14:47:23;19.40;43.80
11246;DHT22;59870;50.106;8.580;2023-04-25T14:49:51;19.50;44.40
11246;DHT22;59870;50.106;8.580;2023-04-25T14:52:21;19.00;44.30
11246;DHT22;59870;50.106;8.580;2023-04-25T14:54:57;19.30;44.60
11246;DHT22;59870;50.106;8.580;2023-04-25T15:10:02;18.80;44.60
11246;DHT22;59870;50.106;8.580;2023-04-25T15:12:45;18.70;45.10
11246;DHT22;59870;50.106;8.580;2023-04-25T15:15:14;18.70;45.60
11246;DHT22;59870;50.106;8.580;2023-04-25T15:17:53;19.00;46.00
11246;DHT22;59870;50.106;8.580;2023-04-25T15:21:57;18.60;46.00
11246;DHT22;59870;50.106;8.580;2023-04-25T15:30:34;18.50;46.10
11246;DHT22;59870;50.106;8.580;2023-04-25T15:33:06;19.00;46.40
11246;DHT22;59870;50.106;8.580;2023-04-25T15:35:34;19.00;46.50
11246;DHT22;59870;50.106;8.580;2023-04-25T15:38:02;18.40;46.20
11246;DHT22;59870;50.106;8.580;2023-04-25T15:43:34;18.40;46.90
11246;DHT22;59870;50.106;8.580;2023-04-25T15:46:08;18.40;45.90
11246;DHT22;59870;50.106;8.580;2023-04-25T15:48:36;18.30;45.90
11246;DHT22;59870;50.106;8.580;2023-04-25T15:51:04;18.30;45.00
11246;DHT22;59870;50.106;8.580;2023-04-25T16:01:58;18.60;44.60
11246;DHT22;59870;50.106;8.580;2023-04-25T16:11:33;18.00;43.40
11246;DHT22;59870;50.106;8.580;2023-04-25T16:14:01;17.90;43.50
11246;DHT22;59870;50.106;8.580;2023-04-25T16:16:29;18.30;44.00
11246;DHT22;59870;50.106;8.580;2023-04-25T16:18:56;17.70;44.00
11246;DHT22;59870;50.106;8.580;2023-04-25T16:25:25;17.60;44.50
11246;DHT22;59870;50.106;8.580;2023-04-25T16:27:54;17.60;44.30
11246;DHT22;59870;50.106;8.580;2023-04-25T16:30:21;17.50;44.80
11246;DHT22;59870;50.106;8.580;2023-04-25T16:32:49;17.80;44.30
11246;DHT22;59870;50.106;8.580;2023-04-25T16:40:21;17.30;45.00
11246;DHT22;59870;50.106;8.580;2023-04-25T16:42:48;17.30;44.90
11246;DHT22;59870;50.106;8.580;2023-04-25T16:45:15;17.30;46.00
11246;DHT22;59870;50.106;8.580;2023-04-25T16:47:46;17.30;46.10
11246;DHT22;59870;50.106;8.580;2023-04-25T16:50:14;17.30;46.90
11246;DHT22;59870;50.106;8.580;2023-04-25T16:52:43;17.30;46.60
11246;DHT22;59870;50.106;8.580;2023-04-25T16:55:11;17.20;46.70
11246;DHT22;59870;50.106;8.580;2023-04-25T16:57:39;17.20;46.80
11246;DHT22;59870;50.106;8.580;2023-04-25T17:00:09;17.30;46.50
11246;DHT22;59870;50.106;8.580;2023-04-25T17:02:40;17.30;46.30
11246;DHT22;59870;50.106;8.580;2023-04-25T17:05:07;17.20;46.80
11246;DHT22;59870;50.106;8.580;2023-04-25T17:08:00;17.20;45.60
11246;DHT22;59870;50.106;8.580;2023-04-25T17:10:29;17.20;46.50
11246;DHT22;59870;50.106;8.580;2023-04-25T17:12:57;17.20;46.40
11246;DHT22;59870;50.106;8.580;2023-04-25T17:15:24;17.40;45.80
11246;DHT22;59870;50.106;8.580;2023-04-25T17:17:51;17.10;46.60
11246;DHT22;59870;50.106;8.580;2023-04-25T17:20:19;17.10;44.80
11246;DHT22;59870;50.106;8.580;2023-04-25T17:23:13;17.10;45.20
11246;DHT22;59870;50.106;8.580;2023-04-25T17:25:41;17.00;45.60
11246;DHT22;59870;50.106;8.580;2023-04-25T17:28:29;17.00;44.90
11246;DHT22;59870;50.106;8.580;2023-04-25T17:30:57;17.60;46.00
11246;DHT22;59870;50.106;8.580;2023-04-25T17:33:24;17.40;45.90
11246;DHT22;59870;50.106;8.580;2023-04-25T17:35:53;16.90;45.30
11246;DHT22;59870;50.106;8.580;2023-04-25T17:41:29;16.80;45.60
11246;DHT22;59870;50.106;8.580;2023-04-25T18:19:08;16.00;47.50
11246;DHT22;59870;50.106;8.580;2023-04-25T18:24:54;16.00;47.30
11246;DHT22;59870;50.106;8.580;2023-04-25T18:27:38;15.90;46.80
11246;DHT22;59870;50.106;8.580;2023-04-25T18:30:08;15.80;47.40
11246;DHT22;59870;50.106;8.580;2023-04-25T18:33:02;15.80;48.00
11246;DHT22;59870;50.106;8.580;2023-04-25T18:35:55;15.70;47.30
11246;DHT22;59870;50.106;8.580;2023-04-25T18:41:29;15.60;48.00
11246;DHT22;59870;50.106;8.580;2023-04-25T18:44:21;15.60;48.40
11246;DHT22;59870;50.106;8.580;2023-04-25T18:46:49;15.50;48.20
11246;DHT22;59870;50.106;8.580;2023-04-25T18:49:16;15.50;48.50
11246;DHT22;59870;50.106;8.580;2023-04-25T18:51:44;15.40;49.00
11246;DHT22;59870;50.106;8.580;2023-04-25T18:54:12;15.80;49.00
11246;DHT22;59870;50.106;8.580;2023-04-25T18:56:40;15.30;48.60
11246;DHT22;59870;50.106;8.580;2023-04-25T18:59:32;15.30;48.50
11246;DHT22;59870;50.106;8.580;2023-04-25T19:02:01;15.20;48.20
11246;DHT22;59870;50.106;8.580;2023-04-25T19:04:31;15.40;48.60
11246;DHT22;59870;50.106;8.580;2023-04-25T19:06:59;15.10;48.30
11246;DHT22;59870;50.106;8.580;2023-04-25T19:09:27;15.00;48.10
11246;DHT22;59870;50.106;8.580;2023-04-25T19:11:54;14.90;48.40
11246;DHT22;59870;50.106;8.580;2023-04-25T19:14:23;15.30;49.30
11246;DHT22;59870;50.106;8.580;2023-04-25T19:16:52;14.80;49.30
11246;DHT22;59870;50.106;8.580;2023-04-25T19:19:20;15.20;49.50
11246;DHT22;59870;50.106;8.580;2023-04-25T19:21:48;14.70;49.50
11246;DHT22;59870;50.106;8.580;2023-04-25T19:24:17;14.60;49.60
11246;DHT22;59870;50.106;8.580;2023-04-25T19:26:46;15.10;49.50
11246;DHT22;59870;50.106;8.580;2023-04-25T19:29:15;14.50;49.30
11246;DHT22;59870;50.106;8.580;2023-04-25T19:31:43;15.20;50.50
11246;DHT22;59870;50.106;8.580;2023-04-25T19:34:12;14.40;50.10
11246;DHT22;59870;50.106;8.580;2023-04-25T19:36:41;14.80;50.30
11246;DHT22;59870;50.106;8.580;2023-04-25T19:39:08;14.80;50.30
11246;DHT22;59870;50.106;8.580;2023-04-25T19:41:37;14.30;50.30
11246;DHT22;59870;50.106;8.580;2023-04-25T19:44:06;14.30;50.40
11246;DHT22;59870;50.106;8.580;2023-04-25T19:46:36;14.30;50.30
11246;DHT22;59870;50.106;8.580;2023-04-25T19:49:04;14.30;50.30
11246;DHT22;59870;50.106;8.580;2023-04-25T19:51:35;14.80;51.20
11246;DHT22;59870;50.106;8.580;2023-04-25T20:47:33;12.80;54.80
11246;DHT22;59870;50.106;8.580;2023-04-25T20:50:03;12.70;55.00